Time;durP1;ratioP1;P1;durP2;ratioP2;P2;SDS_P1;SDS_P2;PMS_P1;PMS_P2;Temp;Humidity;BMP_temperature;BMP_pressure;BME280_temperature;BME280_humidity;BME280_pressure;Samples;Min_cycle;Max_cycle;Signal;HPM_P1;HPM_P2
2023/08/25 00:02:01;;;;;;;0.10;0.10;;;;;;;;;;6244217;23;20016;-90
2023/08/25 00:04:29;;;;;;;0.20;0.20;;;;;;;;;;6219770;23;20020;-89
2023/08/25 00:07:00;;;;;;;0.20;0.20;;;;;;;;;;6219759;23;20011;-89
2023/08/25 00:09:26;;;;;;;0.10;0.10;;;;;;;;;;6219964;23;20027;-89
2023/08/25 00:11:57;;;;;;;0.17;0.17;;;;;;;;;;6218161;23;20016;-89
2023/08/25 00:14:25;;;;;;;0.10;0.10;;;;;;;;;;6243916;22;20016;-88
2023/08/25 00:16:51;;;;;;;0.10;0.10;;;;;;;;;;6219088;23;20020;-88
2023/08/25 00:19:24;;;;;;;0.10;0.10;;;;;;;;;;6246337;22;19996;-89
2023/08/25 00:21:56;;;;;;;0.32;0.32;;;;;;;;;;6219089;23;20020;-89
2023/08/25 00:24:27;;;;;;;0.20;0.20;;;;;;;;;;6218462;23;20016;-89
2023/08/25 00:26:53;;;;;;;0.10;0.10;;;;;;;;;;6218838;23;20020;-89
2023/08/25 00:29:23;;;;;;;0.00;0.00;;;;;;;;;;6244924;22;20047;-89
2023/08/25 00:31:52;;;;;;;0.10;0.10;;;;;;;;;;6269458;23;20016;-89
2023/08/25 00:34:19;;;;;;;0.10;0.10;;;;;;;;;;6216768;23;20087;-89
2023/08/25 00:36:45;;;;;;;0.03;0.03;;;;;;;;;;6217685;23;20019;-89
2023/08/25 00:39:12;;;;;;;0.00;0.00;;;;;;;;;;6242412;23;20016;-88
2023/08/25 00:41:39;;;;;;;0.10;0.10;;;;;;;;;;6217168;23;20008;-89
2023/08/25 00:44:06;;;;;;;0.10;0.10;;;;;;;;;;6216093;23;20023;-90
2023/08/25 00:46:35;;;;;;;0.00;0.00;;;;;;;;;;6244733;23;20043;-88
2023/08/25 00:49:05;;;;;;;0.08;0.08;;;;;;;;;;6218705;23;20018;-89
2023/08/25 00:51:31;;;;;;;0.05;0.05;;;;;;;;;;6216826;23;20031;-89
2023/08/25 00:54:01;;;;;;;0.20;0.20;;;;;;;;;;6218254;23;20016;-89
2023/08/25 00:56:27;;;;;;;0.10;0.10;;;;;;;;;;6215842;23;20072;-89
2023/08/25 00:58:54;;;;;;;0.17;0.17;;;;;;;;;;6191169;23;20000;-88
2023/08/25 01:01:20;;;;;;;0.20;0.20;;;;;;;;;;6189843;23;20066;-88
2023/08/25 01:03:50;;;;;;;0.10;0.10;;;;;;;;;;6217600;23;20023;-89
2023/08/25 01:06:16;;;;;;;0.10;0.10;;;;;;;;;;6215326;23;20154;-87
2023/08/25 01:08:43;;;;;;;0.10;0.10;;;;;;;;;;6212742;23;20020;-89
2023/08/25 01:11:15;;;;;;;0.10;0.10;;;;;;;;;;6216483;22;20027;-87
2023/08/25 01:13:49;;;;;;;0.10;0.10;;;;;;;;;;6217050;23;20035;-89
2023/08/25 01:16:30;;;;;;;0.10;0.10;;;;;;;;;;6242847;23;20019;-88
2023/08/25 01:18:58;;;;;;;0.10;0.10;;;;;;;;;;6217294;23;20082;-90
2023/08/25 01:21:25;;;;;;;0.20;0.20;;;;;;;;;;6218956;23;20016;-89
2023/08/25 01:24:31;;;;;;;0.00;0.00;;;;;;;;;;6194658;23;20016;-89
2023/08/25 01:26:57;;;;;;;0.10;0.10;;;;;;;;;;6071576;23;20018;-89
2023/08/25 01:29:23;;;;;;;0.10;0.10;;;;;;;;;;6069939;23;19998;-88
2023/08/25 01:31:49;;;;;;;0.10;0.10;;;;;;;;;;6144616;23;20024;-90
2023/08/25 01:34:36;;;;;;;0.00;0.00;;;;;;;;;;6218816;23;20011;-88
2023/08/25 01:37:12;;;;;;;0.10;0.10;;;;;;;;;;6218587;23;20020;-89
2023/08/25 01:39:41;;;;;;;0.10;0.10;;;;;;;;;;6218790;22;20047;-88
2023/08/25 01:42:28;;;;;;;0.00;0.00;;;;;;;;;;6217405;23;20055;-88
2023/08/25 01:44:55;;;;;;;0.20;0.20;;;;;;;;;;6216783;23;20051;-89
2023/08/25 01:47:23;;;;;;;0.15;0.15;;;;;;;;;;6217461;23;20010;-90
2023/08/25 01:49:50;;;;;;;0.20;0.20;;;;;;;;;;6240930;23;20072;-89
2023/08/25 01:52:18;;;;;;;0.10;0.10;;;;;;;;;;6218634;23;20020;-89
2023/08/25 01:54:46;;;;;;;0.10;0.10;;;;;;;;;;6216872;23;20023;-88
2023/08/25 01:57:17;;;;;;;0.00;0.00;;;;;;;;;;6218816;23;20016;-90
2023/08/25 01:59:47;;;;;;;0.05;0.05;;;;;;;;;;6243380;23;20044;-90
2023/08/25 02:02:14;;;;;;;0.10;0.10;;;;;;;;;;6218499;23;20129;-89
2023/08/25 02:04:40;;;;;;;0.10;0.10;;;;;;;;;;6216240;23;20039;-89
2023/08/25 02:07:09;;;;;;;0.20;0.20;;;;;;;;;;6219221;23;20046;-88
2023/08/25 02:09:37;;;;;;;0.13;0.13;;;;;;;;;;6217088;23;20022;-88
2023/08/25 02:12:04;;;;;;;0.00;0.00;;;;;;;;;;6219205;23;20000;-88
2023/08/25 02:14:30;;;;;;;0.10;0.10;;;;;;;;;;6217454;23;20023;-88
2023/08/25 02:16:56;;;;;;;0.20;0.20;;;;;;;;;;6241528;23;20035;-88
2023/08/25 02:19:22;;;;;;;0.20;0.20;;;;;;;;;;6219218;23;20016;-89
2023/08/25 02:21:48;;;;;;;0.10;0.10;;;;;;;;;;6218078;23;20090;-88
2023/08/25 02:24:14;;;;;;;0.20;0.20;;;;;;;;;;6218235;23;20000;-87
2023/08/25 02:26:41;;;;;;;0.10;0.10;;;;;;;;;;6218553;23;20016;-89
2023/08/25 02:29:10;;;;;;;0.20;0.20;;;;;;;;;;6216792;23;20007;-88
2023/08/25 02:31:39;;;;;;;0.20;0.20;;;;;;;;;;6216433;23;19996;-89
2023/08/25 02:34:05;;;;;;;0.10;0.10;;;;;;;;;;6216076;23;20068;-89
2023/08/25 02:36:31;;;;;;;0.20;0.20;;;;;;;;;;6238777;23;20007;-89
2023/08/25 02:38:58;;;;;;;0.20;0.20;;;;;;;;;;6214134;23;20000;-87
2023/08/25 02:41:24;;;;;;;0.10;0.10;;;;;;;;;;6215823;23;20023;-89
2023/08/25 02:43:51;;;;;;;0.17;0.17;;;;;;;;;;6217079;23;20016;-89
2023/08/25 02:46:17;;;;;;;0.10;0.10;;;;;;;;;;6215557;23;20020;-88
2023/08/25 02:48:46;;;;;;;0.10;0.10;;;;;;;;;;6243818;23;20000;-89
2023/08/25 02:51:18;;;;;;;0.17;0.17;;;;;;;;;;6216815;23;20022;-87
2023/08/25 02:53:44;;;;;;;0.10;0.10;;;;;;;;;;6217724;23;20024;-88
2023/08/25 02:56:13;;;;;;;0.20;0.20;;;;;;;;;;6218934;23;20020;-88
2023/08/25 02:58:40;;;;;;;0.08;0.08;;;;;;;;;;6216889;23;20012;-87
2023/08/25 03:01:14;;;;;;;0.10;0.10;;;;;;;;;;6244346;23;20016;-88
2023/08/25 03:03:41;;;;;;;0.20;0.20;;;;;;;;;;6195669;23;20027;-88
2023/08/25 03:06:07;;;;;;;0.10;0.10;;;;;;;;;;6220007;23;20012;-88
2023/08/25 03:08:33;;;;;;;0.10;0.10;;;;;;;;;;6244000;23;20023;-89
2023/08/25 03:11:02;;;;;;;0.10;0.10;;;;;;;;;;6218721;23;20016;-88
2023/08/25 03:13:32;;;;;;;0.20;0.20;;;;;;;;;;6242897;23;20178;-89
2023/08/25 03:16:01;;;;;;;0.20;0.20;;;;;;;;;;6244267;23;20016;-88
2023/08/25 03:18:29;;;;;;;0.20;0.20;;;;;;;;;;6218777;23;20339;-89
2023/08/25 03:20:55;;;;;;;0.20;0.20;;;;;;;;;;6217783;23;20051;-87
2023/08/25 03:23:21;;;;;;;0.10;0.10;;;;;;;;;;6218998;23;20038;-88
2023/08/25 03:25:47;;;;;;;0.10;0.10;;;;;;;;;;6217686;23;20016;-88
2023/08/25 03:28:13;;;;;;;0.10;0.10;;;;;;;;;;6220111;23;20039;-87
2023/08/25 03:30:39;;;;;;;0.20;0.20;;;;;;;;;;6219061;23;20020;-89
2023/08/25 03:33:06;;;;;;;0.20;0.20;;;;;;;;;;6244696;23;20012;-89
2023/08/25 03:35:38;;;;;;;0.10;0.10;;;;;;;;;;6219579;23;20016;-89
2023/08/25 03:38:08;;;;;;;0.00;0.00;;;;;;;;;;6220187;23;20023;-87
2023/08/25 03:40:36;;;;;;;0.10;0.10;;;;;;;;;;6244194;23;20016;-88
2023/08/25 03:43:02;;;;;;;0.20;0.20;;;;;;;;;;6219360;23;20024;-89
2023/08/25 03:45:29;;;;;;;0.10;0.10;;;;;;;;;;6244548;23;20008;-87
2023/08/25 03:47:55;;;;;;;0.08;0.08;;;;;;;;;;6218362;23;20000;-88
2023/08/25 03:50:22;;;;;;;0.10;0.10;;;;;;;;;;6217711;23;20016;-88
2023/08/25 03:52:49;;;;;;;0.10;0.10;;;;;;;;;;6218116;23;20030;-88
2023/08/25 03:55:16;;;;;;;0.00;0.00;;;;;;;;;;6218492;23;20020;-89
2023/08/25 03:57:51;;;;;;;0.20;0.20;;;;;;;;;;6222126;23;20068;-89
2023/08/25 04:00:17;;;;;;;0.20;0.20;;;;;;;;;;6219322;23;20048;-89
2023/08/25 04:02:43;;;;;;;0.10;0.10;;;;;;;;;;6242972;23;20020;-88
2023/08/25 04:05:44;;;;;;;0.10;0.10;;;;;;;;;;6219232;23;20027;-88
2023/08/25 04:08:10;;;;;;;0.15;0.15;;;;;;;;;;6220270;23;20048;-89
2023/08/25 04:10:39;;;;;;;0.10;0.10;;;;;;;;;;6219541;23;20056;-88
2023/08/25 04:13:10;;;;;;;0.10;0.10;;;;;;;;;;6246019;23;20066;-89
2023/08/25 04:15:37;;;;;;;0.10;0.10;;;;;;;;;;6196139;23;20043;-88
2023/08/25 04:18:04;;;;;;;0.03;0.03;;;;;;;;;;6222141;23;19996;-87
2023/08/25 04:20:33;;;;;;;0.10;0.10;;;;;;;;;;6244621;23;20000;-88
2023/08/25 04:23:01;;;;;;;0.10;0.10;;;;;;;;;;6244309;23;20019;-88
2023/08/25 04:25:29;;;;;;;0.10;0.10;;;;;;;;;;6218943;23;20020;-88
2023/08/25 04:27:56;;;;;;;0.28;0.28;;;;;;;;;;6244037;23;20020;-88
2023/08/25 04:30:22;;;;;;;0.13;0.13;;;;;;;;;;6220225;23;20020;-88
2023/08/25 04:32:51;;;;;;;0.20;0.20;;;;;;;;;;6243575;23;20020;-88
2023/08/25 04:35:17;;;;;;;0.10;0.10;;;;;;;;;;6220611;23;20020;-89
2023/08/25 04:37:47;;;;;;;0.10;0.10;;;;;;;;;;6220626;23;20016;-88
2023/08/25 04:40:17;;;;;;;0.10;0.10;;;;;;;;;;6242778;23;20011;-87
2023/08/25 04:42:43;;;;;;;0.13;0.13;;;;;;;;;;6218445;23;20020;-88
2023/08/25 04:45:14;;;;;;;0.10;0.10;;;;;;;;;;6218392;23;20016;-86
2023/08/25 04:47:40;;;;;;;0.20;0.20;;;;;;;;;;6218438;23;20016;-86
2023/08/25 04:50:08;;;;;;;0.00;0.00;;;;;;;;;;6219854;23;20000;-87
2023/08/25 04:52:37;;;;;;;0.10;0.10;;;;;;;;;;6196525;23;20040;-89
2023/08/25 04:55:07;;;;;;;0.10;0.10;;;;;;;;;;6242198;23;20016;-88
2023/08/25 04:57:34;;;;;;;0.30;0.30;;;;;;;;;;6218947;23;20038;-87
2023/08/25 05:00:05;;;;;;;0.20;0.20;;;;;;;;;;6243950;23;20072;-89
2023/08/25 05:02:39;;;;;;;0.20;0.20;;;;;;;;;;6243593;22;20070;-88
2023/08/25 05:05:18;;;;;;;0.10;0.10;;;;;;;;;;6243344;23;20020;-88
2023/08/25 05:07:50;;;;;;;0.20;0.20;;;;;;;;;;6218482;23;20378;-87
2023/08/25 05:10:20;;;;;;;0.20;0.20;;;;;;;;;;6216650;23;20026;-88
2023/08/25 05:12:46;;;;;;;0.10;0.10;;;;;;;;;;6218487;23;20016;-87
2023/08/25 05:15:12;;;;;;;0.20;0.20;;;;;;;;;;6218235;23;20047;-87
2023/08/25 05:17:38;;;;;;;0.10;0.10;;;;;;;;;;6218921;23;20048;-87
2023/08/25 05:20:07;;;;;;;0.10;0.10;;;;;;;;;;6219036;23;20031;-87
2023/08/25 05:22:37;;;;;;;0.15;0.15;;;;;;;;;;6243219;23;20012;-87
2023/08/25 05:25:03;;;;;;;0.10;0.10;;;;;;;;;;6217013;23;20078;-87
2023/08/25 05:27:31;;;;;;;0.20;0.20;;;;;;;;;;6217941;23;20067;-87
2023/08/25 05:29:58;;;;;;;0.10;0.10;;;;;;;;;;6218087;23;20052;-88
2023/08/25 05:32:25;;;;;;;0.10;0.10;;;;;;;;;;6243834;22;20082;-87
2023/08/25 05:34:51;;;;;;;0.15;0.15;;;;;;;;;;6218327;23;20027;-87
2023/08/25 05:37:18;;;;;;;0.10;0.10;;;;;;;;;;6217926;23;20035;-88
2023/08/25 05:39:45;;;;;;;0.10;0.10;;;;;;;;;;6217110;23;20012;-87
2023/08/25 05:42:16;;;;;;;0.17;0.17;;;;;;;;;;6218644;23;20016;-87
2023/08/25 05:44:43;;;;;;;0.10;0.10;;;;;;;;;;6216968;23;20016;-87
2023/08/25 05:47:12;;;;;;;0.10;0.10;;;;;;;;;;6219724;23;20011;-87
2023/08/25 05:49:41;;;;;;;0.20;0.20;;;;;;;;;;6218821;23;20016;-87
2023/08/25 05:52:08;;;;;;;0.10;0.10;;;;;;;;;;6238503;23;20040;-88
2023/08/25 05:54:34;;;;;;;0.22;0.22;;;;;;;;;;6217529;23;20023;-88
2023/08/25 05:57:05;;;;;;;0.15;0.15;;;;;;;;;;6219611;23;20015;-87
2023/08/25 05:59:32;;;;;;;0.10;0.10;;;;;;;;;;6219605;23;20020;-87
2023/08/25 06:01:58;;;;;;;0.10;0.10;;;;;;;;;;6244406;23;20056;-88
2023/08/25 06:04:29;;;;;;;0.20;0.20;;;;;;;;;;6219052;23;20004;-87
2023/08/25 06:06:55;;;;;;;0.20;0.20;;;;;;;;;;6219591;23;20023;-87
2023/08/25 06:09:24;;;;;;;0.20;0.20;;;;;;;;;;6243301;23;20027;-87
2023/08/25 06:11:54;;;;;;;0.08;0.08;;;;;;;;;;6245773;23;20326;-87
2023/08/25 06:14:35;;;;;;;0.10;0.10;;;;;;;;;;6246647;23;20012;-89
2023/08/25 06:17:04;;;;;;;0.10;0.10;;;;;;;;;;6243823;23;20020;-87
2023/08/25 06:19:36;;;;;;;0.10;0.10;;;;;;;;;;6245483;23;20059;-87
2023/08/25 06:22:02;;;;;;;0.20;0.20;;;;;;;;;;6221222;22;20051;-89
2023/08/25 06:24:33;;;;;;;0.30;0.30;;;;;;;;;;6243226;23;20020;-88
2023/08/25 06:27:02;;;;;;;0.10;0.10;;;;;;;;;;6220586;23;20031;-87
2023/08/25 06:29:30;;;;;;;0.05;0.05;;;;;;;;;;6218440;23;20027;-89
2023/08/25 06:31:59;;;;;;;0.15;0.15;;;;;;;;;;6245346;23;20000;-87
2023/08/25 06:34:28;;;;;;;0.10;0.10;;;;;;;;;;6220972;23;20043;-87
2023/08/25 06:36:56;;;;;;;0.08;0.08;;;;;;;;;;6220522;23;20027;-87
2023/08/25 06:39:24;;;;;;;0.10;0.10;;;;;;;;;;6221231;23;20019;-87
2023/08/25 06:41:50;;;;;;;0.00;0.00;;;;;;;;;;6221924;23;20020;-88
2023/08/25 06:44:17;;;;;;;0.10;0.10;;;;;;;;;;6221127;23;20021;-90
2023/08/25 06:46:44;;;;;;;0.20;0.20;;;;;;;;;;6222501;23;20004;-88
2023/08/25 06:49:11;;;;;;;0.10;0.10;;;;;;;;;;6221870;23;20062;-88
2023/08/25 06:51:41;;;;;;;0.03;0.03;;;;;;;;;;6247069;23;20020;-86
2023/08/25 06:54:07;;;;;;;0.00;0.00;;;;;;;;;;6219762;23;20035;-87
2023/08/25 06:56:35;;;;;;;0.00;0.00;;;;;;;;;;6247184;23;20004;-88
2023/08/25 06:59:04;;;;;;;0.20;0.20;;;;;;;;;;6272476;22;20004;-87
2023/08/25 07:01:31;;;;;;;0.10;0.10;;;;;;;;;;6221229;23;20558;-88
2023/08/25 07:03:57;;;;;;;0.10;0.10;;;;;;;;;;6197086;23;20027;-88
2023/08/25 07:06:23;;;;;;;0.10;0.10;;;;;;;;;;6221506;23;20026;-86
2023/08/25 07:08:50;;;;;;;0.17;0.17;;;;;;;;;;6220352;23;20357;-89
2023/08/25 07:11:16;;;;;;;0.10;0.10;;;;;;;;;;6245376;23;20020;-87
2023/08/25 07:13:45;;;;;;;0.10;0.10;;;;;;;;;;6221769;23;20016;-87
2023/08/25 07:16:11;;;;;;;0.10;0.10;;;;;;;;;;6221351;23;20004;-88
2023/08/25 07:18:37;;;;;;;0.17;0.17;;;;;;;;;;6220444;23;20000;-89
2023/08/25 07:21:06;;;;;;;0.10;0.10;;;;;;;;;;6245454;22;20014;-87
2023/08/25 07:23:32;;;;;;;0.10;0.10;;;;;;;;;;6196270;23;20061;-89
2023/08/25 07:25:58;;;;;;;0.10;0.10;;;;;;;;;;6221445;23;20016;-88
2023/08/25 07:28:32;;;;;;;0.10;0.10;;;;;;;;;;6248792;23;20015;-88
2023/08/25 07:30:59;;;;;;;0.10;0.10;;;;;;;;;;6222441;22;20027;-88
2023/08/25 07:33:41;;;;;;;0.10;0.10;;;;;;;;;;6273065;22;20047;-89
2023/08/25 07:36:07;;;;;;;0.10;0.10;;;;;;;;;;6221817;23;20024;-88
2023/08/25 07:38:33;;;;;;;0.10;0.10;;;;;;;;;;6221248;23;20070;-89
2023/08/25 07:40:59;;;;;;;0.10;0.10;;;;;;;;;;6245524;22;20042;-89
2023/08/25 07:43:29;;;;;;;0.00;0.00;;;;;;;;;;6246434;23;20062;-88
2023/08/25 07:45:58;;;;;;;0.10;0.10;;;;;;;;;;6247191;23;20362;-88
2023/08/25 07:48:24;;;;;;;0.10;0.10;;;;;;;;;;6220949;23;20004;-87
2023/08/25 07:50:50;;;;;;;0.10;0.10;;;;;;;;;;6220734;23;20047;-88
2023/08/25 07:53:20;;;;;;;0.10;0.10;;;;;;;;;;6220973;23;20045;-89
2023/08/25 07:55:47;;;;;;;0.05;0.05;;;;;;;;;;6220797;23;20056;-89
2023/08/25 07:58:13;;;;;;;0.17;0.17;;;;;;;;;;6221827;23;20032;-88
2023/08/25 08:00:50;;;;;;;0.10;0.10;;;;;;;;;;6223411;23;20103;-88
2023/08/25 08:03:19;;;;;;;0.00;0.00;;;;;;;;;;6223651;23;20023;-88
2023/08/25 08:05:46;;;;;;;0.10;0.10;;;;;;;;;;6247137;22;20055;-91
2023/08/25 08:08:15;;;;;;;0.00;0.00;;;;;;;;;;6220715;23;20023;-92
2023/08/25 08:10:44;;;;;;;0.10;0.10;;;;;;;;;;6245821;23;20020;-91
2023/08/25 08:13:11;;;;;;;0.10;0.10;;;;;;;;;;6220279;23;20016;-94
2023/08/25 08:15:44;;;;;;;0.03;0.03;;;;;;;;;;6221690;23;20004;-91
2023/08/25 08:18:10;;;;;;;0.10;0.10;;;;;;;;;;6221863;23;20048;-93
2023/08/25 08:20:36;;;;;;;0.10;0.10;;;;;;;;;;6220380;23;20052;-91
2023/08/25 08:23:02;;;;;;;0.10;0.10;;;;;;;;;;6220246;23;20018;-91
2023/08/25 08:25:30;;;;;;;0.10;0.10;;;;;;;;;;6220478;23;20078;-90
2023/08/25 08:28:19;;;;;;;0.10;0.10;;;;;;;;;;6220676;23;20000;-92
2023/08/25 08:30:45;;;;;;;0.20;0.20;;;;;;;;;;6218871;23;20076;-92
2023/08/25 08:33:11;;;;;;;0.00;0.00;;;;;;;;;;6219728;23;20066;-91
2023/08/25 08:35:40;;;;;;;0.00;0.00;;;;;;;;;;6243231;23;20017;-92
2023/08/25 08:38:08;;;;;;;0.10;0.10;;;;;;;;;;6211912;23;20016;-93
2023/08/25 08:40:35;;;;;;;0.10;0.10;;;;;;;;;;6218160;23;20024;-91
2023/08/25 08:43:02;;;;;;;0.10;0.10;;;;;;;;;;6193780;23;20027;-91
2023/08/25 08:45:31;;;;;;;0.10;0.10;;;;;;;;;;6243220;23;20063;-90
2023/08/25 08:47:57;;;;;;;0.05;0.05;;;;;;;;;;6218089;23;20016;-92
2023/08/25 08:50:23;;;;;;;0.10;0.10;;;;;;;;;;6219376;23;20064;-91
2023/08/25 08:52:50;;;;;;;0.10;0.10;;;;;;;;;;6220686;23;20008;-92
2023/08/25 08:55:16;;;;;;;0.10;0.10;;;;;;;;;;6194409;23;20020;-92
2023/08/25 08:57:43;;;;;;;0.10;0.10;;;;;;;;;;6219523;23;20012;-91
2023/08/25 09:00:12;;;;;;;0.10;0.10;;;;;;;;;;6243853;23;20015;-92
2023/08/25 09:02:59;;;;;;;0.10;0.10;;;;;;;;;;6220480;23;20106;-90
2023/08/25 09:05:29;;;;;;;0.10;0.10;;;;;;;;;;6216799;23;20004;-90
2023/08/25 09:08:02;;;;;;;0.03;0.03;;;;;;;;;;6220690;23;20020;-90
2023/08/25 09:10:30;;;;;;;0.00;0.00;;;;;;;;;;6191873;23;20078;-91
2023/08/25 09:12:57;;;;;;;0.20;0.20;;;;;;;;;;6243204;23;20061;-90
2023/08/25 09:15:24;;;;;;;0.10;0.10;;;;;;;;;;6217952;23;20031;-91
2023/08/25 09:18:00;;;;;;;0.00;0.00;;;;;;;;;;6243127;22;20020;-92
2023/08/25 09:20:29;;;;;;;0.10;0.10;;;;;;;;;;6244308;23;20047;-90
2023/08/25 09:22:57;;;;;;;0.13;0.13;;;;;;;;;;6219546;23;20020;-91
2023/08/25 09:25:26;;;;;;;0.20;0.20;;;;;;;;;;6218169;23;20067;-92
2023/08/25 09:28:03;;;;;;;0.00;0.00;;;;;;;;;;6243211;23;20035;-91
2023/08/25 09:30:39;;;;;;;0.00;0.00;;;;;;;;;;6241512;22;20024;-92
2023/08/25 09:33:06;;;;;;;0.17;0.17;;;;;;;;;;6218246;23;20024;-92
2023/08/25 09:35:33;;;;;;;0.30;0.30;;;;;;;;;;6218519;23;20088;-91
2023/08/25 09:38:00;;;;;;;0.22;0.22;;;;;;;;;;6219795;23;20075;-92
2023/08/25 09:40:35;;;;;;;0.10;0.10;;;;;;;;;;6218969;23;20016;-91
2023/08/25 09:43:02;;;;;;;0.10;0.10;;;;;;;;;;6220176;23;20016;-92
2023/08/25 09:45:29;;;;;;;0.10;0.10;;;;;;;;;;6221059;23;20011;-92
2023/08/25 09:48:05;;;;;;;0.10;0.10;;;;;;;;;;6219888;23;20023;-91
2023/08/25 09:50:42;;;;;;;0.10;0.10;;;;;;;;;;6220157;23;20016;-90
2023/08/25 09:53:10;;;;;;;0.17;0.17;;;;;;;;;;6220739;23;20012;-91
2023/08/25 09:55:39;;;;;;;0.10;0.10;;;;;;;;;;6218821;23;20020;-90
2023/08/25 09:58:09;;;;;;;0.20;0.20;;;;;;;;;;6219116;23;20031;-92
2023/08/25 10:00:39;;;;;;;0.20;0.20;;;;;;;;;;6220332;23;20027;-90
2023/08/25 10:03:25;;;;;;;0.08;0.08;;;;;;;;;;6215790;23;20008;-91
2023/08/25 10:05:51;;;;;;;0.10;0.10;;;;;;;;;;6243079;23;20016;-90
2023/08/25 10:08:17;;;;;;;0.17;0.17;;;;;;;;;;6217790;23;19996;-92
2023/08/25 10:10:44;;;;;;;0.10;0.10;;;;;;;;;;6215980;23;20087;-91
2023/08/25 10:13:14;;;;;;;0.10;0.10;;;;;;;;;;6240646;23;20040;-92
2023/08/25 10:15:41;;;;;;;0.13;0.13;;;;;;;;;;6219080;23;20046;-90
2023/08/25 10:18:08;;;;;;;0.10;0.10;;;;;;;;;;6219040;23;20000;-91
2023/08/25 10:20:36;;;;;;;0.10;0.10;;;;;;;;;;6217958;23;20042;-90
2023/08/25 10:23:08;;;;;;;0.00;0.00;;;;;;;;;;6217463;23;20000;-91
2023/08/25 10:25:36;;;;;;;0.00;0.00;;;;;;;;;;6242992;23;20016;-91
2023/08/25 10:28:04;;;;;;;0.20;0.20;;;;;;;;;;6194899;23;20027;-92
2023/08/25 10:30:31;;;;;;;0.03;0.03;;;;;;;;;;6217486;23;20000;-92
2023/08/25 10:33:08;;;;;;;0.10;0.10;;;;;;;;;;6216824;23;20027;-92
2023/08/25 10:35:47;;;;;;;0.15;0.15;;;;;;;;;;6267559;23;20047;-89
2023/08/25 10:38:19;;;;;;;0.10;0.10;;;;;;;;;;6218605;23;20072;-91
2023/08/25 10:40:55;;;;;;;0.00;0.00;;;;;;;;;;6243733;22;20529;-92
2023/08/25 10:43:32;;;;;;;0.10;0.10;;;;;;;;;;6243986;22;20016;-91
2023/08/25 10:46:02;;;;;;;0.10;0.10;;;;;;;;;;6194217;23;20016;-90
2023/08/25 10:48:28;;;;;;;0.10;0.10;;;;;;;;;;6219088;23;20064;-91
2023/08/25 10:51:09;;;;;;;0.10;0.10;;;;;;;;;;6218807;23;20027;-92
2023/08/25 10:53:39;;;;;;;0.10;0.10;;;;;;;;;;6219232;23;20020;-92
2023/08/25 10:56:17;;;;;;;0.10;0.10;;;;;;;;;;6218221;23;20016;-91
2023/08/25 10:58:56;;;;;;;0.20;0.20;;;;;;;;;;6220257;23;20504;-92
2023/08/25 11:01:39;;;;;;;0.15;0.15;;;;;;;;;;6240838;22;20042;-90
2023/08/25 11:04:08;;;;;;;0.10;0.10;;;;;;;;;;6218832;23;20020;-91
2023/08/25 11:06:40;;;;;;;0.20;0.20;;;;;;;;;;6217100;23;20047;-91
2023/08/25 11:09:09;;;;;;;0.10;0.10;;;;;;;;;;6215549;23;20011;-92
2023/08/25 11:11:36;;;;;;;0.10;0.10;;;;;;;;;;6217516;23;20105;-93
2023/08/25 11:14:02;;;;;;;0.00;0.00;;;;;;;;;;6217666;22;20047;-92
2023/08/25 11:16:29;;;;;;;0.20;0.20;;;;;;;;;;6215389;23;20052;-92
2023/08/25 11:18:56;;;;;;;0.00;0.00;;;;;;;;;;6244482;23;20048;-90
2023/08/25 11:21:24;;;;;;;0.10;0.10;;;;;;;;;;6242951;23;20039;-91
2023/08/25 11:23:54;;;;;;;0.20;0.20;;;;;;;;;;6269770;23;20059;-91
2023/08/25 11:26:21;;;;;;;0.20;0.20;;;;;;;;;;6216569;23;20023;-91
2023/08/25 11:28:48;;;;;;;0.20;0.20;;;;;;;;;;6218683;23;20027;-92
2023/08/25 11:31:16;;;;;;;0.10;0.10;;;;;;;;;;6220661;22;20014;-93
2023/08/25 11:33:43;;;;;;;0.10;0.10;;;;;;;;;;6220297;23;20030;-90
2023/08/25 11:36:15;;;;;;;0.20;0.20;;;;;;;;;;6219478;23;20027;-92
2023/08/25 11:38:41;;;;;;;0.10;0.10;;;;;;;;;;6218309;23;20031;-92
2023/08/25 11:41:08;;;;;;;0.10;0.10;;;;;;;;;;6192664;23;20064;-90
2023/08/25 11:43:38;;;;;;;0.13;0.13;;;;;;;;;;6218842;23;20020;-91
2023/08/25 11:46:10;;;;;;;0.00;0.00;;;;;;;;;;6243540;23;20016;-91
2023/08/25 11:48:37;;;;;;;0.10;0.10;;;;;;;;;;6216099;23;20016;-91
2023/08/25 11:51:03;;;;;;;0.13;0.13;;;;;;;;;;6242570;23;20020;-89
2023/08/25 11:53:32;;;;;;;0.10;0.10;;;;;;;;;;6216213;23;20542;-92
2023/08/25 11:56:03;;;;;;;0.10;0.10;;;;;;;;;;6216466;23;20420;-92
2023/08/25 11:58:31;;;;;;;0.17;0.17;;;;;;;;;;6217134;23;20070;-92
2023/08/25 12:01:07;;;;;;;0.10;0.10;;;;;;;;;;6218277;22;20024;-92
2023/08/25 12:03:33;;;;;;;0.10;0.10;;;;;;;;;;6218143;23;20020;-92
2023/08/25 12:06:00;;;;;;;0.10;0.10;;;;;;;;;;6218996;23;20043;-92
2023/08/25 12:08:26;;;;;;;0.20;0.20;;;;;;;;;;6217843;23;20073;-91
2023/08/25 12:11:19;;;;;;;0.30;0.30;;;;;;;;;;6220291;23;20016;-91
2023/08/25 12:13:47;;;;;;;0.10;0.10;;;;;;;;;;6220121;23;20027;-92
2023/08/25 12:18:53;;;;;;;0.00;0.00;;;;;;;;;;6261178;22;20044;-90
2023/08/25 12:21:50;;;;;;;0.10;0.10;;;;;;;;;;6245936;23;20020;-92
2023/08/25 12:24:25;;;;;;;0.00;0.00;;;;;;;;;;6219216;23;20004;-93
2023/08/25 12:26:56;;;;;;;0.10;0.10;;;;;;;;;;6221656;23;20032;-95
2023/08/25 12:29:22;;;;;;;0.10;0.10;;;;;;;;;;6221269;23;20024;-93
2023/08/25 12:32:09;;;;;;;0.10;0.10;;;;;;;;;;6218711;23;20027;-93
2023/08/25 12:34:46;;;;;;;0.10;0.10;;;;;;;;;;6217897;23;20341;-94
2023/08/25 12:37:24;;;;;;;0.00;0.00;;;;;;;;;;6220368;23;20051;-93
2023/08/25 12:39:50;;;;;;;0.10;0.10;;;;;;;;;;6218443;23;20042;-95
2023/08/25 12:42:34;;;;;;;0.10;0.10;;;;;;;;;;6218657;23;20027;-89
2023/08/25 12:45:19;;;;;;;0.20;0.20;;;;;;;;;;6215505;23;20016;-89
2023/08/25 12:47:48;;;;;;;0.00;0.00;;;;;;;;;;6215498;23;20044;-87
2023/08/25 12:50:30;;;;;;;0.10;0.10;;;;;;;;;;6214973;23;20000;-89
2023/08/25 12:53:21;;;;;;;0.00;0.00;;;;;;;;;;6214485;23;20020;-89
2023/08/25 12:55:48;;;;;;;0.10;0.10;;;;;;;;;;6214146;23;20020;-89
2023/08/25 12:58:24;;;;;;;0.10;0.10;;;;;;;;;;6214648;23;20138;-89
2023/08/25 13:01:28;;;;;;;0.10;0.10;;;;;;;;;;6240317;23;20012;-89
2023/08/25 13:03:59;;;;;;;0.10;0.10;;;;;;;;;;6215355;23;20016;-89
2023/08/25 13:07:01;;;;;;;0.10;0.10;;;;;;;;;;6214642;23;20047;-89
2023/08/25 13:09:44;;;;;;;0.10;0.10;;;;;;;;;;6237235;23;20386;-88
2023/08/25 13:12:20;;;;;;;0.00;0.00;;;;;;;;;;6239458;23;20072;-90
2023/08/25 13:14:46;;;;;;;0.10;0.10;;;;;;;;;;6214098;23;20022;-87
2023/08/25 13:17:15;;;;;;;0.00;0.00;;;;;;;;;;6215001;23;20016;-88
2023/08/25 13:19:43;;;;;;;0.10;0.10;;;;;;;;;;6211977;23;20043;-88
2023/08/25 13:22:34;;;;;;;0.15;0.15;;;;;;;;;;6237060;23;20068;-87
2023/08/25 13:25:19;;;;;;;0.05;0.05;;;;;;;;;;6235601;23;20019;-88
2023/08/25 13:27:45;;;;;;;0.00;0.00;;;;;;;;;;6235699;23;20019;-88
2023/08/25 13:30:12;;;;;;;0.00;0.00;;;;;;;;;;6213856;23;20087;-88
2023/08/25 13:32:43;;;;;;;0.00;0.00;;;;;;;;;;6213033;23;20374;-87
2023/08/25 13:35:16;;;;;;;0.22;0.22;;;;;;;;;;6202640;23;20035;-86
2023/08/25 13:37:47;;;;;;;0.05;0.05;;;;;;;;;;6210778;23;20016;-88
2023/08/25 13:40:36;;;;;;;0.10;0.10;;;;;;;;;;6209268;23;20016;-87
2023/08/25 13:43:16;;;;;;;0.10;0.10;;;;;;;;;;6206668;23;20364;-89
2023/08/25 13:46:00;;;;;;;0.30;0.30;;;;;;;;;;6204751;23;20043;-90
2023/08/25 13:48:26;;;;;;;0.10;0.10;;;;;;;;;;6210140;23;20071;-89
2023/08/25 13:50:57;;;;;;;0.10;0.10;;;;;;;;;;6204038;23;20105;-88
2023/08/25 13:53:27;;;;;;;0.10;0.10;;;;;;;;;;6215797;23;20360;-87
2023/08/25 13:55:59;;;;;;;0.10;0.10;;;;;;;;;;6194456;23;20516;-87
2023/08/25 13:58:30;;;;;;;0.10;0.10;;;;;;;;;;6236048;23;20062;-87
2023/08/25 14:01:00;;;;;;;0.10;0.10;;;;;;;;;;6211071;23;20068;-88
2023/08/25 14:03:32;;;;;;;0.05;0.05;;;;;;;;;;6202290;23;20016;-88
2023/08/25 14:06:01;;;;;;;0.10;0.10;;;;;;;;;;6219477;23;20023;-87
2023/08/25 14:08:27;;;;;;;0.30;0.30;;;;;;;;;;6192749;23;20098;-89
2023/08/25 14:10:54;;;;;;;0.10;0.10;;;;;;;;;;6193988;23;20015;-89
2023/08/25 14:13:36;;;;;;;0.10;0.10;;;;;;;;;;6197342;23;20057;-88
2023/08/25 14:16:15;;;;;;;0.10;0.10;;;;;;;;;;6221696;23;20465;-89
2023/08/25 14:18:41;;;;;;;0.10;0.10;;;;;;;;;;6220853;23;20023;-90
2023/08/25 14:21:17;;;;;;;0.10;0.10;;;;;;;;;;6197274;23;20023;-88
2023/08/25 14:24:01;;;;;;;0.00;0.00;;;;;;;;;;6195832;23;20016;-89
2023/08/25 14:26:28;;;;;;;0.10;0.10;;;;;;;;;;6221184;23;20091;-89
2023/08/25 14:29:05;;;;;;;0.10;0.10;;;;;;;;;;6195392;23;20016;-89
2023/08/25 14:31:46;;;;;;;0.10;0.10;;;;;;;;;;6197554;23;20770;-90
2023/08/25 14:34:12;;;;;;;0.10;0.10;;;;;;;;;;6196495;23;20644;-89
2023/08/25 14:36:46;;;;;;;0.10;0.10;;;;;;;;;;6197279;23;20020;-90
2023/08/25 14:39:17;;;;;;;0.20;0.20;;;;;;;;;;6206728;23;20099;-87
2023/08/25 14:41:43;;;;;;;0.10;0.10;;;;;;;;;;6207821;23;20069;-89
2023/08/25 14:44:10;;;;;;;0.13;0.13;;;;;;;;;;6207529;23;20071;-87
2023/08/25 14:46:40;;;;;;;0.20;0.20;;;;;;;;;;6208824;23;20020;-88
2023/08/25 14:49:07;;;;;;;0.15;0.15;;;;;;;;;;6197861;23;20074;-89
2023/08/25 14:51:36;;;;;;;0.10;0.10;;;;;;;;;;6221063;23;20020;-91
2023/08/25 14:54:09;;;;;;;0.10;0.10;;;;;;;;;;6198091;23;20027;-91
2023/08/25 14:56:36;;;;;;;0.10;0.10;;;;;;;;;;6198365;23;20020;-89
2023/08/25 14:59:03;;;;;;;0.20;0.20;;;;;;;;;;6198173;23;20280;-89
2023/08/25 15:01:29;;;;;;;0.00;0.00;;;;;;;;;;6199047;23;20016;-88
2023/08/25 15:04:06;;;;;;;0.10;0.10;;;;;;;;;;6224229;23;20023;-89